sensor_id;sensor_type;location;lat;lon;timestamp;temperature;humidity
42979;DHT22;28616;44.746;19.678;2022-10-01T02:23:30;16.90;99.90
42979;DHT22;28616;44.746;19.678;2022-10-01T02:26:47;16.90;99.90
42979;DHT22;28616;44.746;19.678;2022-10-01T03:03:20;16.80;99.90
42979;DHT22;28616;44.746;19.678;2022-10-01T03:06:02;16.80;99.90
42979;DHT22;28616;44.746;19.678;2022-10-01T03:54:23;16.50;99.90
42979;DHT22;28616;44.746;19.678;2022-10-01T03:56:50;16.50;99.90
42979;DHT22;28616;44.746;19.678;2022-10-01T03:59:31;16.40;99.90
42979;DHT22;28616;44.746;19.678;2022-10-01T04:40:50;16.30;99.90
42979;DHT22;28616;44.746;19.678;2022-10-01T06:11:39;16.90;99.90
42979;DHT22;28616;44.746;19.678;2022-10-01T06:14:20;16.90;99.90
42979;DHT22;28616;44.746;19.678;2022-10-01T13:31:15;25.20;93.50
42979;DHT22;28616;44.746;19.678;2022-10-01T13:33:53;24.40;97.70
42979;DHT22;28616;44.746;19.678;2022-10-01T13:36:31;23.40;99.90
42979;DHT22;28616;44.746;19.678;2022-10-01T13:38:57;22.50;99.90
42979;DHT22;28616;44.746;19.678;2022-10-01T13:41:29;21.60;99.90
42979;DHT22;28616;44.746;19.678;2022-10-01T13:46:50;20.60;99.90
42979;DHT22;28616;44.746;19.678;2022-10-01T13:49:25;20.10;99.90
42979;DHT22;28616;44.746;19.678;2022-10-01T13:51:52;19.50;99.90
42979;DHT22;28616;44.746;19.678;2022-10-01T13:54:48;19.20;99.90
42979;DHT22;28616;44.746;19.678;2022-10-01T13:57:40;19.10;99.90
42979;DHT22;28616;44.746;19.678;2022-10-01T14:02:35;18.80;99.90
42979;DHT22;28616;44.746;19.678;2022-10-01T14:08:02;18.90;99.90
42979;DHT22;28616;44.746;19.678;2022-10-01T14:10:46;18.80;99.90
42979;DHT22;28616;44.746;19.678;2022-10-01T14:13:45;18.80;99.90
42979;DHT22;28616;44.746;19.678;2022-10-01T14:16:38;18.70;99.90
42979;DHT22;28616;44.746;19.678;2022-10-01T14:19:05;18.70;99.90
42979;DHT22;28616;44.746;19.678;2022-10-01T14:24:42;18.80;99.90
42979;DHT22;28616;44.746;19.678;2022-10-01T14:27:27;18.90;99.90
42979;DHT22;28616;44.746;19.678;2022-10-01T14:30:02;18.90;99.90
42979;DHT22;28616;44.746;19.678;2022-10-01T14:35:57;19.20;99.90
42979;DHT22;28616;44.746;19.678;2022-10-01T14:38:25;19.20;99.90
42979;DHT22;28616;44.746;19.678;2022-10-01T14:40:52;19.30;99.90
42979;DHT22;28616;44.746;19.678;2022-10-01T14:43:21;19.30;99.90
42979;DHT22;28616;44.746;19.678;2022-10-01T14:45:58;19.30;99.90
42979;DHT22;28616;44.746;19.678;2022-10-01T14:48:29;19.30;99.90
42979;DHT22;28616;44.746;19.678;2022-10-01T14:50:58;19.40;99.90
42979;DHT22;28616;44.746;19.678;2022-10-01T14:53:29;19.30;99.90
42979;DHT22;28616;44.746;19.678;2022-10-01T14:56:08;19.20;99.90
42979;DHT22;28616;44.746;19.678;2022-10-01T14:58:46;19.20;99.90
42979;DHT22;28616;44.746;19.678;2022-10-01T15:01:21;19.20;99.90
42979;DHT22;28616;44.746;19.678;2022-10-01T15:03:48;19.30;99.90
42979;DHT22;28616;44.746;19.678;2022-10-01T15:06:22;19.20;99.90
42979;DHT22;28616;44.746;19.678;2022-10-01T15:08:53;19.20;99.90
42979;DHT22;28616;44.746;19.678;2022-10-01T15:11:27;19.30;99.90
42979;DHT22;28616;44.746;19.678;2022-10-01T15:14:00;19.30;99.90
42979;DHT22;28616;44.746;19.678;2022-10-01T15:16:27;19.30;99.90
42979;DHT22;28616;44.746;19.678;2022-10-01T15:19:05;19.30;99.90
42979;DHT22;28616;44.746;19.678;2022-10-01T15:21:37;19.40;99.90
42979;DHT22;28616;44.746;19.678;2022-10-01T15:24:09;19.40;99.90
42979;DHT22;28616;44.746;19.678;2022-10-01T15:26:38;19.40;99.90
42979;DHT22;28616;44.746;19.678;2022-10-01T15:29:14;19.30;99.90
42979;DHT22;28616;44.746;19.678;2022-10-01T15:31:42;19.20;99.90
42979;DHT22;28616;44.746;19.678;2022-10-01T15:34:12;19.10;99.90
42979;DHT22;28616;44.746;19.678;2022-10-01T15:36:38;19.10;99.90
42979;DHT22;28616;44.746;19.678;2022-10-01T15:39:36;19.10;99.90
42979;DHT22;28616;44.746;19.678;2022-10-01T15:42:29;19.10;99.90
42979;DHT22;28616;44.746;19.678;2022-10-01T15:47:38;19.00;99.90
42979;DHT22;28616;44.746;19.678;2022-10-01T15:55:26;19.00;99.90
42979;DHT22;28616;44.746;19.678;2022-10-01T16:00:29;19.00;99.90
42979;DHT22;28616;44.746;19.678;2022-10-01T16:02:57;18.90;99.90
42979;DHT22;28616;44.746;19.678;2022-10-01T16:05:27;18.80;99.90
42979;DHT22;28616;44.746;19.678;2022-10-01T16:07:56;18.80;99.90
42979;DHT22;28616;44.746;19.678;2022-10-01T16:10:36;18.80;99.90
42979;DHT22;28616;44.746;19.678;2022-10-01T16:13:36;18.80;99.90
42979;DHT22;28616;44.746;19.678;2022-10-01T16:16:23;18.80;99.90
42979;DHT22;28616;44.746;19.678;2022-10-01T16:18:58;18.70;99.90
42979;DHT22;28616;44.746;19.678;2022-10-01T16:21:25;18.70;99.90
42979;DHT22;28616;44.746;19.678;2022-10-01T16:23:53;18.50;99.90
42979;DHT22;28616;44.746;19.678;2022-10-01T16:26:36;18.50;99.90
42979;DHT22;28616;44.746;19.678;2022-10-01T16:31:39;18.50;99.90
42979;DHT22;28616;44.746;19.678;2022-10-01T16:34:11;18.40;99.90
42979;DHT22;28616;44.746;19.678;2022-10-01T16:36:38;18.40;99.90
42979;DHT22;28616;44.746;19.678;2022-10-01T16:39:03;18.40;99.90
42979;DHT22;28616;44.746;19.678;2022-10-01T16:41:31;18.40;99.90
42979;DHT22;28616;44.746;19.678;2022-10-01T16:43:58;18.30;99.90
42979;DHT22;28616;44.746;19.678;2022-10-01T16:46:24;18.40;99.90
42979;DHT22;28616;44.746;19.678;2022-10-01T16:48:50;18.40;99.90
42979;DHT22;28616;44.746;19.678;2022-10-01T16:51:17;18.40;99.90
42979;DHT22;28616;44.746;19.678;2022-10-01T16:53:43;18.50;99.90
42979;DHT22;28616;44.746;19.678;2022-10-01T16:56:10;18.50;99.90
42979;DHT22;28616;44.746;19.678;2022-10-01T16:58:37;18.40;99.90
42979;DHT22;28616;44.746;19.678;2022-10-01T17:01:07;18.50;99.90
42979;DHT22;28616;44.746;19.678;2022-10-01T17:03:34;18.40;99.90
42979;DHT22;28616;44.746;19.678;2022-10-01T17:06:01;18.30;99.90
42979;DHT22;28616;44.746;19.678;2022-10-01T17:08:27;18.30;99.90
42979;DHT22;28616;44.746;19.678;2022-10-01T17:10:54;18.20;99.90
42979;DHT22;28616;44.746;19.678;2022-10-01T17:13:25;18.20;99.90
42979;DHT22;28616;44.746;19.678;2022-10-01T17:15:52;18.20;99.90
42979;DHT22;28616;44.746;19.678;2022-10-01T17:18:21;18.20;99.90
42979;DHT22;28616;44.746;19.678;2022-10-01T17:20:48;18.20;99.90
42979;DHT22;28616;44.746;19.678;2022-10-01T17:23:15;18.20;99.90
42979;DHT22;28616;44.746;19.678;2022-10-01T17:25:42;18.10;99.90
42979;DHT22;28616;44.746;19.678;2022-10-01T17:28:11;18.10;99.90
42979;DHT22;28616;44.746;19.678;2022-10-01T17:30:42;18.00;99.90
42979;DHT22;28616;44.746;19.678;2022-10-01T17:33:10;18.00;99.90
42979;DHT22;28616;44.746;19.678;2022-10-01T17:35:40;17.90;99.90
42979;DHT22;28616;44.746;19.678;2022-10-01T17:38:07;17.90;99.90
42979;DHT22;28616;44.746;19.678;2022-10-01T17:40:34;17.90;99.90
42979;DHT22;28616;44.746;19.678;2022-10-01T17:43:02;17.90;99.90
42979;DHT22;28616;44.746;19.678;2022-10-01T17:45:27;17.90;99.90
42979;DHT22;28616;44.746;19.678;2022-10-01T17:47:54;17.90;99.90
42979;DHT22;28616;44.746;19.678;2022-10-01T17:50:21;17.90;99.90
42979;DHT22;28616;44.746;19.678;2022-10-01T17:52:47;17.80;99.90
42979;DHT22;28616;44.746;19.678;2022-10-01T17:55:13;17.80;99.90
42979;DHT22;28616;44.746;19.678;2022-10-01T17:57:39;17.80;99.90
42979;DHT22;28616;44.746;19.678;2022-10-01T18:00:05;17.80;99.90
42979;DHT22;28616;44.746;19.678;2022-10-01T18:02:31;17.70;99.90
42979;DHT22;28616;44.746;19.678;2022-10-01T18:04:57;17.70;99.90
42979;DHT22;28616;44.746;19.678;2022-10-01T18:07:23;17.70;99.90
42979;DHT22;28616;44.746;19.678;2022-10-01T18:09:50;17.70;99.90
42979;DHT22;28616;44.746;19.678;2022-10-01T18:12:18;17.60;99.90
42979;DHT22;28616;44.746;19.678;2022-10-01T18:14:43;17.70;99.90
42979;DHT22;28616;44.746;19.678;2022-10-01T18:17:09;17.60;99.90
42979;DHT22;28616;44.746;19.678;2022-10-01T18:19:35;17.60;99.90
42979;DHT22;28616;44.746;19.678;2022-10-01T18:22:01;17.50;99.90
42979;DHT22;28616;44.746;19.678;2022-10-01T18:24:28;17.50;99.90
42979;DHT22;28616;44.746;19.678;2022-10-01T18:26:54;17.50;99.90
42979;DHT22;28616;44.746;19.678;2022-10-01T18:29:22;17.50;99.90
42979;DHT22;28616;44.746;19.678;2022-10-01T18:31:54;17.50;99.90
42979;DHT22;28616;44.746;19.678;2022-10-01T18:34:53;17.60;99.90
42979;DHT22;28616;44.746;19.678;2022-10-01T18:40:09;17.60;99.90
42979;DHT22;28616;44.746;19.678;2022-10-01T18:42:50;17.60;99.90
42979;DHT22;28616;44.746;19.678;2022-10-01T18:54:15;17.60;99.90
42979;DHT22;28616;44.746;19.678;2022-10-01T18:59:51;17.60;99.90
42979;DHT22;28616;44.746;19.678;2022-10-01T19:02:46;17.60;99.90
42979;DHT22;28616;44.746;19.678;2022-10-01T19:08:19;17.60;99.90
42979;DHT22;28616;44.746;19.678;2022-10-01T19:13:40;17.50;99.90
42979;DHT22;28616;44.746;19.678;2022-10-01T19:16:24;17.40;99.90
42979;DHT22;28616;44.746;19.678;2022-10-01T19:30:14;17.20;99.90
42979;DHT22;28616;44.746;19.678;2022-10-01T19:33:02;17.20;99.90
42979;DHT22;28616;44.746;19.678;2022-10-01T19:35:40;17.20;99.90
42979;DHT22;28616;44.746;19.678;2022-10-01T19:38:35;17.10;99.90
42979;DHT22;28616;44.746;19.678;2022-10-01T19:41:26;17.10;99.90
42979;DHT22;28616;44.746;19.678;2022-10-01T19:44:03;17.00;99.90
42979;DHT22;28616;44.746;19.678;2022-10-01T19:46:40;17.00;99.90
42979;DHT22;28616;44.746;19.678;2022-10-01T19:51:50;16.90;99.90
42979;DHT22;28616;44.746;19.678;2022-10-01T19:54:25;16.90;99.90
42979;DHT22;28616;44.746;19.678;2022-10-01T19:56:55;16.80;99.90
42979;DHT22;28616;44.746;19.678;2022-10-01T19:59:22;16.80;99.90
42979;DHT22;28616;44.746;19.678;2022-10-01T20:01:56;16.70;99.90
42979;DHT22;28616;44.746;19.678;2022-10-01T20:07:05;16.70;99.90
42979;DHT22;28616;44.746;19.678;2022-10-01T20:10:09;16.60;99.90
42979;DHT22;28616;44.746;19.678;2022-10-01T20:25:54;16.50;99.90
42979;DHT22;28616;44.746;19.678;2022-10-01T20:28:29;16.50;99.90
42979;DHT22;28616;44.746;19.678;2022-10-01T20:31:06;16.40;99.90
42979;DHT22;28616;44.746;19.678;2022-10-01T20:33:47;16.40;99.90
42979;DHT22;28616;44.746;19.678;2022-10-01T20:36:27;16.40;99.90
42979;DHT22;28616;44.746;19.678;2022-10-01T20:39:10;16.40;99.90
42979;DHT22;28616;44.746;19.678;2022-10-01T20:41:47;16.40;99.90
42979;DHT22;28616;44.746;19.678;2022-10-01T20:44:16;16.40;99.90
42979;DHT22;28616;44.746;19.678;2022-10-01T20:46:48;16.40;99.90
42979;DHT22;28616;44.746;19.678;2022-10-01T20:54:35;16.30;99.90
42979;DHT22;28616;44.746;19.678;2022-10-01T20:59:55;16.20;99.90
42979;DHT22;28616;44.746;19.678;2022-10-01T21:05:17;16.20;99.90
42979;DHT22;28616;44.746;19.678;2022-10-01T21:11:01;16.20;99.90
42979;DHT22;28616;44.746;19.678;2022-10-01T21:13:39;16.10;99.90
42979;DHT22;28616;44.746;19.678;2022-10-01T21:16:29;16.10;99.90
42979;DHT22;28616;44.746;19.678;2022-10-01T21:25:25;16.10;99.90
42979;DHT22;28616;44.746;19.678;2022-10-01T21:28:12;16.10;99.90
42979;DHT22;28616;44.746;19.678;2022-10-01T21:33:33;16.10;99.90
42979;DHT22;28616;44.746;19.678;2022-10-01T21:36:22;16.00;99.90
42979;DHT22;28616;44.746;19.678;2022-10-01T21:39:02;16.00;99.90
42979;DHT22;28616;44.746;19.678;2022-10-01T21:52:09;16.00;99.90
42979;DHT22;28616;44.746;19.678;2022-10-01T21:58:13;15.90;99.90
42979;DHT22;28616;44.746;19.678;2022-10-01T22:00:46;15.90;99.90
42979;DHT22;28616;44.746;19.678;2022-10-01T22:03:34;15.90;99.90
42979;DHT22;28616;44.746;19.678;2022-10-01T22:11:57;16.00;99.90
42979;DHT22;28616;44.746;19.678;2022-10-01T22:14:25;16.00;99.90
42979;DHT22;28616;44.746;19.678;2022-10-01T22:16:55;16.10;99.90
42979;DHT22;28616;44.746;19.678;2022-10-01T22:19:35;16.10;99.90
42979;DHT22;28616;44.746;19.678;2022-10-01T22:22:23;16.20;99.90
42979;DHT22;28616;44.746;19.678;2022-10-01T22:24:53;16.30;99.90
42979;DHT22;28616;44.746;19.678;2022-10-01T22:30:14;16.30;99.90
42979;DHT22;28616;44.746;19.678;2022-10-01T22:35:21;16.50;99.90
42979;DHT22;28616;44.746;19.678;2022-10-01T22:38:01;16.60;99.90
42979;DHT22;28616;44.746;19.678;2022-10-01T22:40:35;16.60;99.90
42979;DHT22;28616;44.746;19.678;2022-10-01T22:43:10;16.60;99.90
42979;DHT22;28616;44.746;19.678;2022-10-01T22:46:19;16.60;99.90
42979;DHT22;28616;44.746;19.678;2022-10-01T22:54:37;16.50;99.90
42979;DHT22;28616;44.746;19.678;2022-10-01T23:00:11;16.40;99.90
42979;DHT22;28616;44.746;19.678;2022-10-01T23:16:00;16.20;99.90
42979;DHT22;28616;44.746;19.678;2022-10-01T23:21:27;16.20;99.90
42979;DHT22;28616;44.746;19.678;2022-10-01T23:24:18;16.20;99.90
42979;DHT22;28616;44.746;19.678;2022-10-01T23:27:11;16.10;99.90
42979;DHT22;28616;44.746;19.678;2022-10-01T23:35:20;16.00;99.90
42979;DHT22;28616;44.746;19.678;2022-10-01T23:38:12;16.00;99.90
42979;DHT22;28616;44.746;19.678;2022-10-01T23:40:43;15.90;99.90
42979;DHT22;28616;44.746;19.678;2022-10-01T23:45:59;15.80;99.90
42979;DHT22;28616;44.746;19.678;2022-10-01T23:48:32;15.80;99.90
42979;DHT22;28616;44.746;19.678;2022-10-01T23:51:02;15.70;99.90
42979;DHT22;28616;44.746;19.678;2022-10-01T23:54:11;15.70;99.90
42979;DHT22;28616;44.746;19.678;2022-10-01T23:56:51;15.80;99.90
42979;DHT22;28616;44.746;19.678;2022-10-01T23:59:44;15.70;99.90
